• Join FlightAware (Why Join?)
  • Login
  • US Flag 
11:50AM EST


 

Airport Tracker/Info


-or-


 

Live Flight TrackerFlight Track Log ✈ RPA3228 ✈ 06-Nov-2013 ✈ KBNA - KDCA

Flight Track Log - Related Links

Times and Time Zones

All times are in EST time to prevent confusion due to time zone crossing. See the RPA3228 flight status page for this flight to view local times or setup timezone preferences in your user account.

Time Position Orientation Groundspeed Altitude Reporting Facility
EST Latitude Longitude Course Direction KTS MPH feet Rate Location/Type
07:01AM 36.1167 -86.6833 56° Northeast 135 155 1,400  Level Nashville TRACON
07:01AM 36.1167 -86.6833 56° Northeast 127 146 2,300 2,280 Climbing Nashville TRACON
07:02AM 36.0783 -86.6589 153° Southeast 204 235 3,700 2,580 Climbing Memphis Center
07:03AM 36.0842 -86.5714 85° East 254 292 7,000 3,240 Climbing Memphis Center
07:04AM 36.2766 -86.2205 68° East  Level Estimated
07:04AM 36.1142 -86.4697 70° East 273 314 10,200  Level Memphis Center
07:05AM 36.3143 -86.1058 68° East  Level Estimated
07:05AM 36.1464 -86.3678 69° East 300 345 13,200  Level Memphis Center
07:06AM 36.3520 -85.9910 56° Northeast  Level Estimated
07:06AM 36.1803 -86.2558 69° East 331 381 16,000  Level Memphis Center
07:07AM 36.2139 -86.1383 70° East 348 400 18,000 1,980 Climbing Memphis Center
07:08AM 36.2536 -86.0153 68° East 375 432 20,000 1,800 Climbing Memphis Center
07:09AM 36.2889 -85.9000 69° East 380 437 21,700 1,800 Climbing Memphis Center
07:10AM 36.3364 -85.7678 66° East 413 475 23,800 1,800 Climbing Indianapolis Center
07:11AM 36.3972 -85.6411 59° Northeast 423 487 25,400 1,560 Climbing Indianapolis Center
07:12AM 36.4603 -85.5089 59° Northeast 440 506 27,000 1,680 Climbing Indianapolis Center
07:13AM 36.5242 -85.3722 60° Northeast 452 520 28,900 1,860 Climbing Indianapolis Center
07:14AM 36.5883 -85.2342 60° Northeast 457 526 30,900 1,860 Climbing Indianapolis Center
07:15AM 36.6419 -85.0928 65° Northeast 453 521 32,700 1,680 Climbing Indianapolis Center
07:16AM 36.6872 -84.9439 69° East 454 522 34,400 1,080 Climbing Indianapolis Center
07:17AM 36.7414 -84.7642 69° East 460 529 35,000 240 Climbing Indianapolis Center
07:18AM 36.7869 -84.6164 69° East 457 526 35,000  Level Indianapolis Center
07:19AM 36.8286 -84.4797 69° East 456 525 35,000  Level Indianapolis Center
07:20AM 36.8728 -84.3317 70° East 453 521 35,000  Level Indianapolis Center
07:21AM 36.9175 -84.1831 69° East 455 524 35,000  Level Indianapolis Center
07:22AM 36.9611 -84.0350 70° East 453 521 35,000  Level Indianapolis Center
07:23AM 37.0050 -83.8861 70° East 456 525 35,000  Level Indianapolis Center
07:24AM 37.0486 -83.7386 70° East 451 519 35,000  Level Indianapolis Center
07:25AM 37.1000 -83.5644 70° East 453 521 35,000  Level Indianapolis Center
07:26AM 37.1436 -83.4153 70° East 452 520 35,000  Level Indianapolis Center
07:27AM 37.1872 -83.2636 70° East 456 525 35,000  Level Indianapolis Center
07:28AM 37.2314 -83.1144 70° East 453 521 35,000  Level Indianapolis Center
07:29AM 37.2747 -82.9628 70° East 455 524 35,000  Level Indianapolis Center
07:30AM 37.3181 -82.8117 70° East 456 525 35,000  Level Indianapolis Center
07:31AM 37.3614 -82.6606 70° East 456 525 35,000  Level Indianapolis Center
07:32AM 37.4022 -82.5111 71° East 452 520 35,000  Level Indianapolis Center
07:33AM 37.4436 -82.3622 71° East 450 518 35,000  Level Indianapolis Center
07:34AM 37.4856 -82.2131 70° East 450 518 35,000  Level Indianapolis Center
07:35AM 37.5269 -82.0639 71° East 451 519 35,000  Level Indianapolis Center
07:36AM 37.5683 -81.9156 71° East 449 517 35,000  Level Indianapolis Center
07:37AM 37.6158 -81.7406 71° East 451 519 35,000  Level Indianapolis Center
07:38AM 37.6564 -81.5903 71° East 452 520 35,000  Level Indianapolis Center
07:40AM 37.6944 -81.4489 71° East 451 519 35,000  Level Indianapolis Center
07:41AM 37.7347 -81.3025 71° East 452 520 35,000  Level Indianapolis Center
07:42AM 37.7725 -81.1561 72° East 451 519 35,000  Level Indianapolis Center
07:43AM 37.8286 -80.9892 67° East 450 518 35,000  Level Indianapolis Center
07:44AM 37.8797 -80.8442 66° East 453 521 35,000  Level Indianapolis Center
07:45AM 37.9303 -80.7017 66° East 446 513 35,000  Level Indianapolis Center
07:46AM 37.9822 -80.5558 66° East 451 519 35,000  Level Indianapolis Center
07:47AM 38.0403 -80.3917 66° East 451 519 35,000  Level Indianapolis Center
07:48AM 38.0839 -80.2644 66° East 453 521 35,000 -780 Level Indianapolis Center
07:49AM 38.1439 -80.0947 66° East 484 557 33,500 -1,500 Descending Indianapolis Center
07:50AM 38.2044 -79.9236 66° East 532 612 32,000 -780 Descending Indianapolis Center
07:51AM 38.2769 -79.7194 66° East 538 619 32,000  Level Indianapolis Center
07:52AM 38.3372 -79.5572 65° Northeast 537 618 32,000 -660 Level Washington Center
07:53AM 38.3992 -79.3803 66° East 537 618 30,700 -1,800 Descending Washington Center
07:54AM 38.4444 -79.1997 72° East 532 612 28,500 -1,860 Descending Washington Center
07:55AM 38.4747 -79.0181 78° East 526 605 27,000 -1,500 Descending Washington Center
07:56AM 38.5053 -78.8153 79° East 526 605 25,600 -2,100 Descending Washington Center
07:57AM 38.5328 -78.6414 79° East 519 597 22,900 -2,040 Descending Washington Center
07:58AM 38.5597 -78.4778 78° East 497 572 21,600 -1,620 Descending Washington Center
07:59AM 38.5844 -78.3194 79° East 469 540 19,700 -1,800 Descending Washington Center
08:00AM 38.6208 -78.1772 72° East 442 509 18,100 -1,680 Descending Washington Center
08:01AM 38.6611 -78.0456 69° East 413 475 16,400 -1,800 Descending Washington Center
08:02AM 38.7033 -77.9219 66° East 392 451 14,500 -1,860 Descending Washington Center
08:03AM 38.7428 -77.8114 65° Northeast 363 418 12,800 -1,560 Descending Washington Center
08:04AM 38.8006 -77.7281 48° Northeast 327 376 11,500 -1,380 Descending Washington Center
08:05AM 38.8583 -77.6469 48° Northeast 309 356 10,100 -1,380 Descending Washington Center
08:06AM 38.9097 -77.5711 49° Northeast 304 350 8,800 -1,200 Descending Washington Center
08:07AM 38.9500 -77.4833 59° Northeast 292 336 8,000 -1,440 Descending Potomac TRACON
08:08AM 38.9667 -77.3833 78° East 282 325 6,200 -1,500 Descending Potomac TRACON
08:09AM 38.9833 -77.2833 78° East 266 306 5,000 -1,140 Descending Potomac TRACON
08:10AM 38.9833 -77.2000 90° East 221 254 4,000 -1,440 Descending Potomac TRACON
08:11AM 38.9667 -77.1500 113° Southeast 207 238 2,300 -1,140 Descending Potomac TRACON
08:12AM 38.9333 -77.1167 142° Southeast 160 184 1,900 -660 Descending Potomac TRACON
08:13AM 38.9000 -77.0833 142° Southeast 148 170 1,100 -840 Descending Potomac TRACON
08:14AM 38.8833 -77.0500 123° Southeast 121 139 400 -720 Descending Potomac TRACON